createdAt,value
2019-02-21T00:01:14.132Z,16.77
2019-02-21T00:03:44.529Z,17.55
2019-02-21T00:06:14.884Z,15.18
2019-02-21T00:08:45.436Z,16.70
2019-02-21T00:11:15.709Z,18.00
2019-02-21T00:13:45.904Z,21.02
2019-02-21T00:16:16.157Z,23.20
2019-02-21T00:18:46.350Z,22.95
2019-02-21T00:21:16.545Z,20.12
2019-02-21T00:23:46.754Z,20.12
2019-02-21T00:26:16.980Z,19.95
2019-02-21T00:28:47.197Z,18.70
2019-02-21T00:31:17.459Z,18.05
2019-02-21T00:33:47.655Z,19.12
2019-02-21T00:36:17.980Z,21.15
2019-02-21T00:38:48.176Z,19.45
2019-02-21T00:41:18.398Z,18.70
2019-02-21T00:43:48.568Z,20.32
2019-02-21T00:46:18.796Z,22.32
2019-02-21T00:48:49.084Z,19.20
2019-02-21T00:51:19.359Z,23.98
2019-02-21T00:53:49.523Z,20.40
2019-02-21T00:56:19.735Z,21.87
2019-02-21T00:58:50.549Z,33.00
2019-02-21T01:01:21.119Z,37.28
2019-02-21T01:03:52.693Z,31.10
2019-02-21T01:06:22.901Z,24.50
2019-02-21T01:08:53.271Z,16.57
2019-02-21T01:11:23.550Z,22.58
2019-02-21T01:13:53.817Z,19.27
2019-02-21T01:16:24.129Z,24.67
2019-02-21T01:18:54.334Z,21.85
2019-02-21T01:21:24.555Z,22.70
2019-02-21T01:23:54.745Z,20.52
2019-02-21T01:26:25.150Z,79.32
2019-02-21T01:28:55.372Z,19.45
2019-02-21T01:31:25.789Z,21.48
2019-02-21T01:33:56.122Z,22.15
2019-02-21T01:36:26.334Z,21.82
2019-02-21T01:38:56.525Z,22.30
2019-02-21T01:41:26.827Z,29.07
2019-02-21T01:43:57.270Z,21.97
2019-02-21T01:46:27.581Z,20.57
2019-02-21T01:48:59.486Z,19.23
2019-02-21T01:51:29.759Z,24.40
2019-02-21T01:54:00.018Z,18.48
2019-02-21T01:56:30.234Z,21.52
2019-02-21T01:59:00.429Z,19.57
2019-02-21T02:01:31.089Z,20.97
2019-02-21T02:04:01.482Z,17.32
2019-02-21T02:06:31.665Z,16.55
2019-02-21T02:09:01.855Z,19.45
2019-02-21T02:11:33.495Z,16.97
2019-02-21T02:14:03.934Z,14.10
2019-02-21T02:16:34.540Z,16.23
2019-02-21T02:19:04.904Z,15.43
2019-02-21T02:21:35.133Z,18.15
2019-02-21T02:24:05.477Z,18.55
2019-02-21T02:26:35.759Z,20.02
2019-02-21T02:29:06.017Z,14.40
2019-02-21T02:31:36.306Z,15.93
2019-02-21T02:34:06.688Z,14.45
2019-02-21T02:36:37.027Z,15.30
2019-02-21T02:39:07.227Z,15.80
2019-02-21T02:41:37.448Z,16.82
2019-02-21T02:44:07.820Z,20.30
2019-02-21T02:46:38.025Z,92.53
2019-02-21T02:49:08.296Z,21.05
2019-02-21T02:51:38.513Z,18.67
2019-02-21T02:54:08.740Z,21.23
2019-02-21T02:56:38.975Z,17.40
2019-02-21T02:59:09.162Z,18.50
2019-02-21T03:01:39.377Z,19.27
2019-02-21T03:04:09.720Z,16.67
2019-02-21T03:06:40.006Z,16.40
2019-02-21T03:09:11.666Z,17.52
2019-02-21T03:11:41.904Z,13.93
2019-02-21T03:14:12.165Z,17.60
2019-02-21T03:16:42.380Z,16.62
2019-02-21T03:19:12.557Z,16.37
2019-02-21T03:21:42.769Z,19.98
2019-02-21T03:24:12.954Z,15.68
2019-02-21T03:26:43.181Z,19.65
2019-02-21T03:29:13.366Z,19.05
2019-02-21T03:31:54.739Z,18.60
2019-02-21T03:34:15.515Z,17.67
2019-02-21T03:36:45.727Z,19.30
2019-02-21T03:39:15.923Z,18.40
2019-02-21T03:41:46.337Z,20.15
2019-02-21T03:44:16.522Z,20.20
2019-02-21T03:46:46.847Z,18.12
2019-02-21T03:49:17.177Z,16.87
2019-02-21T03:51:47.571Z,14.80
2019-02-21T03:54:17.898Z,17.17
2019-02-21T03:56:48.353Z,18.20
2019-02-21T03:59:18.554Z,16.45
2019-02-21T04:01:48.942Z,15.80
2019-02-21T04:04:19.278Z,14.15
2019-02-21T04:06:49.515Z,17.40
2019-02-21T04:09:19.806Z,18.57
2019-02-21T04:11:50.129Z,17.42
2019-02-21T04:14:21.128Z,15.28
2019-02-21T04:16:51.501Z,17.10
2019-02-21T04:19:22.141Z,17.98
2019-02-21T04:21:52.362Z,19.37
2019-02-21T04:24:22.657Z,18.48
2019-02-21T04:26:52.864Z,20.55
2019-02-21T04:29:23.061Z,18.98
2019-02-21T04:31:53.264Z,21.45
2019-02-21T04:34:23.453Z,16.52
2019-02-21T04:36:53.693Z,18.55
2019-02-21T04:39:23.881Z,16.37
2019-02-21T04:41:54.218Z,17.30
2019-02-21T04:44:24.721Z,16.07
2019-02-21T04:46:54.945Z,20.70
2019-02-21T04:49:25.146Z,14.65
2019-02-21T04:51:55.358Z,17.87
2019-02-21T04:54:25.557Z,16.75
2019-02-21T04:56:55.769Z,18.32
2019-02-21T04:59:25.999Z,20.57
2019-02-21T05:01:56.268Z,21.73
2019-02-21T05:04:26.386Z,22.80
2019-02-21T05:06:57.898Z,22.40
2019-02-21T05:09:28.174Z,21.52
2019-02-21T05:11:58.531Z,18.07
2019-02-21T05:14:28.700Z,26.10
2019-02-21T05:17:00.662Z,20.48
2019-02-21T05:19:30.905Z,23.95
2019-02-21T05:22:01.208Z,20.85
2019-02-21T05:24:31.562Z,18.70
2019-02-21T05:27:03.719Z,19.73
2019-02-21T05:29:34.018Z,19.23
2019-02-21T05:32:05.903Z,16.57
2019-02-21T05:34:43.430Z,17.15
2019-02-21T05:37:15.287Z,19.32
2019-02-21T05:39:50.048Z,18.50
2019-02-21T05:42:21.922Z,17.62
2019-02-21T05:45:11.049Z,19.48
2019-02-21T05:47:49.414Z,21.27
2019-02-21T05:50:27.621Z,20.80
2019-02-21T05:53:02.248Z,21.17
2019-02-21T05:55:34.194Z,18.87
2019-02-21T05:58:12.817Z,22.70
2019-02-21T06:00:44.874Z,19.37
2019-02-21T06:03:19.664Z,18.40
2019-02-21T06:05:51.500Z,16.55
2019-02-21T06:08:34.834Z,20.68
2019-02-21T06:11:18.686Z,20.70
2019-02-21T06:14:06.709Z,22.85
2019-02-21T06:16:50.191Z,19.48
2019-02-21T06:19:25.197Z,21.93
2019-02-21T06:22:10.630Z,20.25
2019-02-21T06:24:42.004Z,21.68
2019-02-21T06:27:29.827Z,23.12
2019-02-21T06:30:01.662Z,22.50
2019-02-21T06:32:32.049Z,22.45
2019-02-21T06:35:03.120Z,22.02
2019-02-21T06:37:33.330Z,23.52
2019-02-21T06:40:04.023Z,17.02
2019-02-21T06:42:34.601Z,25.40
2019-02-21T06:45:05.864Z,20.00
2019-02-21T06:47:36.043Z,24.25
2019-02-21T06:50:06.518Z,22.35
2019-02-21T06:52:37.000Z,21.37
2019-02-21T06:55:07.284Z,16.93
2019-02-21T06:57:37.878Z,27.07
2019-02-21T07:00:08.257Z,47.35
2019-02-21T07:02:38.463Z,34.65
2019-02-21T07:05:08.798Z,25.52
2019-02-21T07:07:39.088Z,23.75
2019-02-21T07:10:09.365Z,22.65
2019-02-21T07:12:39.754Z,30.25
2019-02-21T07:15:11.127Z,28.67
2019-02-21T07:17:48.865Z,32.45
2019-02-21T07:20:13.388Z,27.13
2019-02-21T07:22:43.602Z,30.00
2019-02-21T07:25:21.592Z,28.50
2019-02-21T07:27:51.780Z,27.60
2019-02-21T07:30:23.250Z,21.95
2019-02-21T07:32:55.090Z,24.47
2019-02-21T07:35:25.794Z,26.17
2019-02-21T07:37:55.988Z,21.20
2019-02-21T07:40:26.202Z,25.40
2019-02-21T07:42:58.645Z,24.55
2019-02-21T07:45:28.361Z,25.55
2019-02-21T07:47:58.565Z,30.17
2019-02-21T07:50:29.666Z,42.48
2019-02-21T07:53:02.636Z,47.88
2019-02-21T07:55:32.968Z,49.45
2019-02-21T07:58:04.058Z,33.63
2019-02-21T08:00:34.573Z,46.25
2019-02-21T08:03:04.898Z,34.53
2019-02-21T08:05:35.221Z,39.20
2019-02-21T08:08:05.521Z,31.00
2019-02-21T08:10:35.804Z,33.63
2019-02-21T08:13:05.994Z,30.95
2019-02-21T08:15:36.314Z,35.73
2019-02-21T08:18:06.575Z,33.38
2019-02-21T08:20:40.818Z,36.83
2019-02-21T08:23:11.000Z,33.30
2019-02-21T08:25:40.885Z,31.00
2019-02-21T08:28:11.406Z,33.50
2019-02-21T08:30:41.718Z,29.52
2019-02-21T08:33:16.305Z,35.43
2019-02-21T08:35:46.794Z,30.10
2019-02-21T08:38:17.152Z,28.62
2019-02-21T08:40:47.669Z,29.05
2019-02-21T08:43:18.021Z,27.77
2019-02-21T08:45:48.534Z,27.77
2019-02-21T08:48:18.795Z,27.95
2019-02-21T08:50:49.000Z,26.45
2019-02-21T08:53:19.191Z,27.62
2019-02-21T08:55:49.453Z,26.05
2019-02-21T08:58:19.641Z,28.10
2019-02-21T09:00:50.049Z,25.55
2019-02-21T09:03:20.234Z,27.00
2019-02-21T09:05:51.041Z,26.57
2019-02-21T09:08:32.729Z,27.20
2019-02-21T09:10:53.186Z,25.45
2019-02-21T09:13:23.972Z,26.30
2019-02-21T09:15:55.935Z,24.75
2019-02-21T09:18:26.269Z,25.45
2019-02-21T09:20:56.473Z,27.32
2019-02-21T09:23:26.767Z,28.80
2019-02-21T09:25:57.213Z,26.02
2019-02-21T09:28:27.379Z,24.98
2019-02-21T09:34:22.073Z,21.95
2019-02-21T09:36:52.277Z,26.68
2019-02-21T09:39:22.577Z,25.27
2019-02-21T09:41:52.994Z,25.40
2019-02-21T09:44:27.044Z,24.82
2019-02-21T09:46:55.007Z,23.73
2019-02-21T09:49:25.190Z,24.60
2019-02-21T09:51:55.398Z,26.27
2019-02-21T09:54:25.794Z,26.85
2019-02-21T09:56:56.002Z,29.48
2019-02-21T09:59:28.634Z,29.27
2019-02-21T10:01:58.022Z,24.15
2019-02-21T10:04:32.170Z,28.83
2019-02-21T10:07:00.059Z,25.50
2019-02-21T10:09:30.251Z,26.80
2019-02-21T10:12:00.487Z,24.52
2019-02-21T10:14:30.831Z,23.90
2019-02-21T10:17:01.271Z,26.97
2019-02-21T10:19:32.573Z,26.42
2019-02-21T10:22:04.453Z,26.55
2019-02-21T10:24:35.419Z,27.32
2019-02-21T10:27:06.984Z,22.37
2019-02-21T10:29:38.328Z,23.57
2019-02-21T10:32:10.919Z,21.68
2019-02-21T10:34:43.389Z,21.90
2019-02-21T10:37:15.961Z,26.30
2019-02-21T10:39:47.893Z,23.32
2019-02-21T10:42:19.444Z,20.15
2019-02-21T10:44:50.857Z,22.27
2019-02-21T10:47:22.247Z,19.40
2019-02-21T10:49:53.062Z,23.05
2019-02-21T10:52:27.475Z,20.68
2019-02-21T10:54:59.566Z,22.85
2019-02-21T10:57:30.265Z,22.02
2019-02-21T11:00:00.494Z,18.70
2019-02-21T11:02:30.806Z,21.05
2019-02-21T11:05:00.969Z,24.18
2019-02-21T11:07:31.295Z,21.80
2019-02-21T11:10:01.586Z,20.32
2019-02-21T11:12:31.831Z,19.85
2019-02-21T11:15:02.021Z,22.13
2019-02-21T11:17:32.322Z,19.73
2019-02-21T11:20:02.550Z,16.55
2019-02-21T11:22:32.755Z,22.90
2019-02-21T11:25:02.979Z,17.80
2019-02-21T11:27:33.211Z,18.40
2019-02-21T11:30:04.871Z,18.52
2019-02-21T11:32:35.078Z,18.57
2019-02-21T11:35:06.983Z,18.95
2019-02-21T11:37:44.282Z,15.65
2019-02-21T11:40:11.351Z,18.90
2019-02-21T11:42:41.559Z,18.35
2019-02-21T11:45:16.706Z,16.42
2019-02-21T11:47:46.972Z,14.65
2019-02-21T11:50:20.104Z,12.93
2019-02-21T11:52:51.822Z,12.80
2019-02-21T11:55:26.459Z,15.35
2019-02-21T11:57:58.101Z,14.03
2019-02-21T12:00:31.023Z,13.38
2019-02-21T12:03:01.317Z,12.47
2019-02-21T12:05:32.302Z,16.48
2019-02-21T12:08:02.686Z,12.35
2019-02-21T12:10:33.014Z,13.20
2019-02-21T12:13:03.343Z,14.85
2019-02-21T12:15:34.298Z,13.48
2019-02-21T12:18:04.662Z,15.28
2019-02-21T12:20:34.881Z,12.98
2019-02-21T12:23:05.145Z,13.68
2019-02-21T12:25:35.871Z,15.08
2019-02-21T12:28:06.166Z,17.98
2019-02-21T12:30:37.088Z,13.72
2019-02-21T12:33:07.459Z,12.58
2019-02-21T12:35:37.689Z,16.80
2019-02-21T12:38:07.985Z,16.00
2019-02-21T12:40:38.373Z,17.85
2019-02-21T12:43:08.674Z,14.83
2019-02-21T12:45:39.106Z,18.07
2019-02-21T12:48:09.312Z,16.23
2019-02-21T12:50:44.251Z,14.98
2019-02-21T12:53:12.160Z,13.95
2019-02-21T12:55:42.619Z,15.20
2019-02-21T12:58:12.917Z,14.65
2019-02-21T13:00:43.238Z,13.00
2019-02-21T13:03:13.432Z,12.45
2019-02-21T13:05:44.632Z,15.05
2019-02-21T13:08:15.167Z,13.93
2019-02-21T13:10:45.502Z,12.65
2019-02-21T13:13:15.697Z,14.90
2019-02-21T13:15:46.019Z,13.03
2019-02-21T13:18:16.336Z,12.23
2019-02-21T13:20:46.637Z,14.30
2019-02-21T13:23:16.810Z,12.55
2019-02-21T13:25:47.161Z,14.40
2019-02-21T13:28:17.375Z,13.53
2019-02-21T13:30:47.702Z,14.93
2019-02-21T13:33:18.072Z,15.98
2019-02-21T13:35:52.597Z,13.05
2019-02-21T13:38:20.410Z,12.70
2019-02-21T13:40:50.739Z,15.23
2019-02-21T13:43:21.030Z,15.20
2019-02-21T13:45:51.253Z,12.43
2019-02-21T13:48:21.464Z,14.30
2019-02-21T13:50:51.670Z,15.15
2019-02-21T13:53:22.065Z,14.05
2019-02-21T13:55:52.286Z,12.88
2019-02-21T13:58:22.487Z,15.63
2019-02-21T14:00:52.777Z,15.80
2019-02-21T14:03:23.074Z,15.48
2019-02-21T14:06:02.980Z,13.88
2019-02-21T14:08:25.214Z,12.58
2019-02-21T14:10:55.428Z,16.87
2019-02-21T14:13:25.630Z,12.73
2019-02-21T14:15:55.963Z,14.87
2019-02-21T14:18:26.248Z,14.00
2019-02-21T14:20:56.707Z,14.23
2019-02-21T14:23:28.155Z,15.60
2019-02-21T14:25:58.443Z,13.43
2019-02-21T14:28:28.612Z,17.00
2019-02-21T14:30:58.898Z,19.45
2019-02-21T14:33:29.104Z,16.60
2019-02-21T14:35:59.449Z,14.43
2019-02-21T14:38:29.637Z,15.38
2019-02-21T14:40:59.855Z,15.88
2019-02-21T14:43:30.164Z,19.40
2019-02-21T14:46:00.680Z,15.85
2019-02-21T14:48:30.860Z,37.42
2019-02-21T14:51:01.095Z,51.70
2019-02-21T14:53:31.292Z,21.07
2019-02-21T14:56:01.505Z,18.77
2019-02-21T14:58:31.692Z,19.65
2019-02-21T15:01:02.101Z,20.37
2019-02-21T15:03:32.369Z,16.95
2019-02-21T15:06:02.681Z,17.32
2019-02-21T15:08:32.974Z,20.62
2019-02-21T15:11:03.190Z,20.02
2019-02-21T15:13:33.435Z,15.78
2019-02-21T15:16:03.618Z,15.80
2019-02-21T15:18:33.914Z,17.30
2019-02-21T15:21:04.236Z,20.48
2019-02-21T15:23:37.015Z,20.40
2019-02-21T15:26:06.850Z,15.30
2019-02-21T15:28:38.085Z,17.50
2019-02-21T15:31:08.284Z,16.67
2019-02-21T15:33:38.561Z,23.12
2019-02-21T15:36:08.779Z,18.67
2019-02-21T15:38:38.994Z,18.35
2019-02-21T15:41:10.707Z,21.40
2019-02-21T15:43:41.009Z,21.23
2019-02-21T15:46:13.037Z,18.07
2019-02-21T15:48:44.679Z,21.37
2019-02-21T15:51:14.984Z,20.02
2019-02-21T15:53:45.174Z,21.45
2019-02-21T15:56:15.377Z,22.20
2019-02-21T15:58:45.611Z,18.50
2019-02-21T16:01:15.807Z,16.82
2019-02-21T16:03:46.017Z,21.07
2019-02-21T16:06:16.617Z,18.12
2019-02-21T16:08:46.833Z,18.85
2019-02-21T16:11:17.047Z,17.80
2019-02-21T16:13:47.705Z,24.18
2019-02-21T16:16:19.661Z,22.05
2019-02-21T16:18:49.936Z,22.58
2019-02-21T16:21:20.164Z,15.35
2019-02-21T16:23:50.512Z,16.62
2019-02-21T16:26:20.759Z,18.75
2019-02-21T16:28:51.184Z,17.50
2019-02-21T16:31:21.381Z,19.27
2019-02-21T16:33:51.682Z,20.72
2019-02-21T16:36:22.088Z,17.55
2019-02-21T16:38:52.383Z,22.73
2019-02-21T16:41:22.592Z,16.97
2019-02-21T16:43:52.850Z,17.92
2019-02-21T16:46:23.137Z,22.02
2019-02-21T16:48:53.348Z,17.52
2019-02-21T16:51:23.638Z,21.80
2019-02-21T16:53:53.974Z,20.77
2019-02-21T16:56:26.569Z,22.60
2019-02-21T16:58:56.155Z,17.98
2019-02-21T17:01:26.341Z,17.82
2019-02-21T17:03:56.712Z,17.00
2019-02-21T17:06:27.597Z,23.67
2019-02-21T17:08:57.829Z,22.95
2019-02-21T17:11:28.116Z,20.72
2019-02-21T17:13:58.327Z,21.00
2019-02-21T17:16:28.641Z,23.57
2019-02-21T17:18:59.142Z,19.60
2019-02-21T17:21:30.052Z,19.37
2019-02-21T17:24:00.248Z,126.27
2019-02-21T17:26:31.055Z,24.05
2019-02-21T17:29:01.295Z,25.48
2019-02-21T17:31:31.505Z,24.92
2019-02-21T17:34:01.706Z,25.12
2019-02-21T17:36:32.850Z,24.80
2019-02-21T17:39:03.220Z,520.17
2019-02-21T17:41:33.418Z,24.23
2019-02-21T17:44:03.768Z,27.10
2019-02-21T17:46:34.010Z,25.23
2019-02-21T17:49:04.162Z,30.62
2019-02-21T17:51:34.564Z,21.48
2019-02-21T17:54:04.821Z,21.90
2019-02-21T17:56:35.708Z,23.57
2019-02-21T17:59:05.957Z,22.65
2019-02-21T18:01:36.183Z,22.87
2019-02-21T18:04:06.492Z,23.32
2019-02-21T18:06:36.839Z,24.27
2019-02-21T18:09:07.914Z,31.15
2019-02-21T18:11:38.346Z,29.05
2019-02-21T18:14:08.844Z,30.12
2019-02-21T18:16:39.053Z,30.68
2019-02-21T18:19:09.313Z,32.75
2019-02-21T18:21:39.657Z,31.62
2019-02-21T18:24:09.811Z,31.30
2019-02-21T18:26:40.028Z,31.68
2019-02-21T18:29:10.233Z,1999.90
2019-02-21T18:31:40.471Z,1999.90
2019-02-21T18:34:10.678Z,1999.90
2019-02-21T18:36:42.227Z,1999.90
2019-02-21T18:39:13.786Z,1999.90
2019-02-21T18:41:44.041Z,1999.90
2019-02-21T18:44:14.272Z,1999.90
2019-02-21T18:46:44.490Z,1999.90
2019-02-21T18:49:14.811Z,1999.90
2019-02-21T18:51:45.049Z,1999.90
2019-02-21T18:54:15.359Z,1999.90
2019-02-21T18:56:45.577Z,1999.90
2019-02-21T18:59:15.865Z,1999.90
2019-02-21T19:01:46.286Z,91.10
2019-02-21T19:04:16.473Z,84.13
2019-02-21T19:06:46.690Z,95.97
2019-02-21T19:09:16.945Z,87.33
2019-02-21T19:11:47.232Z,111.30
2019-02-21T19:14:17.430Z,85.65
2019-02-21T19:16:47.642Z,78.10
2019-02-21T19:19:17.886Z,76.87
2019-02-21T19:21:48.387Z,52.03
2019-02-21T19:24:18.586Z,53.02
2019-02-21T19:26:48.778Z,38.17
2019-02-21T19:29:18.974Z,29.35
2019-02-21T19:31:49.265Z,30.62
2019-02-21T19:34:19.867Z,28.62
2019-02-21T19:36:50.150Z,32.13
2019-02-21T19:39:20.342Z,31.20
2019-02-21T19:41:50.734Z,30.72
2019-02-21T19:44:20.991Z,31.65
2019-02-21T19:46:51.303Z,29.27
2019-02-21T19:49:21.498Z,31.65
2019-02-21T19:51:51.711Z,26.93
2019-02-21T19:54:22.015Z,28.70
2019-02-21T19:56:53.415Z,31.52
2019-02-21T19:59:24.271Z,38.00
2019-02-21T20:01:54.478Z,39.00
2019-02-21T20:04:24.749Z,42.75
2019-02-21T20:06:55.031Z,47.67
2019-02-21T20:09:25.552Z,39.58
2019-02-21T20:11:55.834Z,43.68
2019-02-21T20:14:26.792Z,43.65
2019-02-21T20:16:56.992Z,37.45
2019-02-21T20:19:28.378Z,32.80
2019-02-21T20:21:58.669Z,32.85
2019-02-21T20:24:29.120Z,30.12
2019-02-21T20:27:00.338Z,43.48
2019-02-21T20:29:30.684Z,57.33
2019-02-21T20:32:00.905Z,49.42
2019-02-21T20:34:31.211Z,39.95
2019-02-21T20:37:01.431Z,35.45
2019-02-21T20:39:31.683Z,37.58
2019-02-21T20:42:01.953Z,36.83
2019-02-21T20:44:32.237Z,33.20
2019-02-21T20:47:02.459Z,42.95
2019-02-21T20:49:32.876Z,44.98
2019-02-21T20:52:03.158Z,36.83
2019-02-21T20:54:33.549Z,45.88
2019-02-21T20:57:03.764Z,49.67
2019-02-21T20:59:34.058Z,47.93
2019-02-21T21:02:05.153Z,48.50
2019-02-21T21:04:35.478Z,44.18
2019-02-21T21:07:05.669Z,34.73
2019-02-21T21:09:35.862Z,30.90
2019-02-21T21:12:06.151Z,30.40
2019-02-21T21:14:36.332Z,31.05
2019-02-21T21:17:06.826Z,27.52
2019-02-21T21:19:37.005Z,28.45
2019-02-21T21:22:07.468Z,28.15
2019-02-21T21:24:37.659Z,27.35
2019-02-21T21:27:07.941Z,24.95
2019-02-21T21:29:38.212Z,23.00
2019-02-21T21:32:08.438Z,24.95
2019-02-21T21:34:38.730Z,30.10
2019-02-21T21:37:09.296Z,24.30
2019-02-21T21:39:39.502Z,29.07
2019-02-21T21:42:09.706Z,41.35
2019-02-21T21:44:39.920Z,39.00
2019-02-21T21:47:10.176Z,41.40
2019-02-21T21:49:40.394Z,49.65
2019-02-21T21:52:10.570Z,35.55
2019-02-21T21:54:40.795Z,33.05
2019-02-21T21:57:10.994Z,32.25
2019-02-21T21:59:41.201Z,29.98
2019-02-21T22:02:11.536Z,28.98
2019-02-21T22:04:41.846Z,31.02
2019-02-21T22:07:12.193Z,34.85
2019-02-21T22:09:42.517Z,28.98
2019-02-21T22:12:12.822Z,24.77
2019-02-21T22:14:43.129Z,24.98
2019-02-21T22:17:13.435Z,23.15
2019-02-21T22:19:43.656Z,26.62
2019-02-21T22:22:13.933Z,36.10
2019-02-21T22:24:44.346Z,38.80
2019-02-21T22:27:20.207Z,32.00
2019-02-21T22:29:50.431Z,30.30
2019-02-21T22:32:20.623Z,30.27
2019-02-21T22:34:50.841Z,30.17
2019-02-21T22:37:21.172Z,31.95
2019-02-21T22:39:51.494Z,27.55
2019-02-21T22:42:21.782Z,25.92
2019-02-21T22:44:52.069Z,26.87
2019-02-21T22:47:22.359Z,25.12
2019-02-21T22:49:52.764Z,28.62
2019-02-21T22:52:23.060Z,26.10
2019-02-21T22:54:53.278Z,26.82
2019-02-21T22:57:23.461Z,32.53
2019-02-21T22:59:53.673Z,31.37
2019-02-21T23:02:24.602Z,29.82
2019-02-21T23:05:00.689Z,34.13
2019-02-21T23:07:33.944Z,29.80
2019-02-21T23:10:04.298Z,28.92
2019-02-21T23:12:34.476Z,27.40
2019-02-21T23:15:05.527Z,26.12
2019-02-21T23:17:35.713Z,28.55
2019-02-21T23:20:06.190Z,28.45
2019-02-21T23:22:36.384Z,25.25
2019-02-21T23:25:07.136Z,27.70
2019-02-21T23:27:37.327Z,25.45
2019-02-21T23:30:09.588Z,26.45
2019-02-21T23:32:39.764Z,22.90
2019-02-21T23:35:11.713Z,31.35
2019-02-21T23:37:41.920Z,26.20
2019-02-21T23:40:12.225Z,27.65
2019-02-21T23:42:42.421Z,27.73
2019-02-21T23:45:12.769Z,26.05
2019-02-21T23:47:49.793Z,31.62
2019-02-21T23:50:14.886Z,30.00
2019-02-21T23:52:45.647Z,27.95
2019-02-21T23:55:16.181Z,27.62
2019-02-21T23:57:46.363Z,26.17
